sensor_id;sensor_type;location;lat;lon;timestamp;P1;durP1;ratioP1;P2;durP2;ratioP2
19163;SDS011;9714;51.208;4.242;2022-07-29T00:01:01;11.13;;;3.13;;
19163;SDS011;9714;51.208;4.242;2022-07-29T00:03:28;13.30;;;2.70;;
19163;SDS011;9714;51.208;4.242;2022-07-29T00:05:57;11.17;;;2.73;;
19163;SDS011;9714;51.208;4.242;2022-07-29T00:08:25;8.30;;;2.70;;
19163;SDS011;9714;51.208;4.242;2022-07-29T00:10:52;10.30;;;2.63;;
19163;SDS011;9714;51.208;4.242;2022-07-29T00:13:19;11.13;;;2.53;;
19163;SDS011;9714;51.208;4.242;2022-07-29T00:15:46;11.80;;;2.70;;
19163;SDS011;9714;51.208;4.242;2022-07-29T00:18:13;8.87;;;2.30;;
19163;SDS011;9714;51.208;4.242;2022-07-29T00:20:40;10.20;;;2.60;;
19163;SDS011;9714;51.208;4.242;2022-07-29T00:23:08;10.77;;;2.20;;
19163;SDS011;9714;51.208;4.242;2022-07-29T00:25:36;6.67;;;2.30;;
19163;SDS011;9714;51.208;4.242;2022-07-29T00:28:04;10.53;;;2.70;;
19163;SDS011;9714;51.208;4.242;2022-07-29T00:30:31;9.60;;;2.70;;
19163;SDS011;9714;51.208;4.242;2022-07-29T00:32:58;8.60;;;2.30;;
19163;SDS011;9714;51.208;4.242;2022-07-29T00:35:25;11.07;;;2.63;;
19163;SDS011;9714;51.208;4.242;2022-07-29T00:38:12;7.10;;;2.00;;
19163;SDS011;9714;51.208;4.242;2022-07-29T00:40:40;9.23;;;2.40;;
19163;SDS011;9714;51.208;4.242;2022-07-29T00:43:08;9.80;;;2.60;;
19163;SDS011;9714;51.208;4.242;2022-07-29T00:45:36;9.13;;;2.60;;
19163;SDS011;9714;51.208;4.242;2022-07-29T00:48:04;12.17;;;2.90;;
19163;SDS011;9714;51.208;4.242;2022-07-29T00:50:34;7.47;;;2.07;;
19163;SDS011;9714;51.208;4.242;2022-07-29T00:53:03;9.63;;;2.13;;
19163;SDS011;9714;51.208;4.242;2022-07-29T00:55:33;6.73;;;1.93;;
19163;SDS011;9714;51.208;4.242;2022-07-29T00:58:01;8.80;;;2.33;;
19163;SDS011;9714;51.208;4.242;2022-07-29T01:00:28;5.43;;;1.77;;
19163;SDS011;9714;51.208;4.242;2022-07-29T01:02:57;8.80;;;2.30;;
19163;SDS011;9714;51.208;4.242;2022-07-29T01:05:26;8.27;;;2.10;;
19163;SDS011;9714;51.208;4.242;2022-07-29T01:07:55;9.10;;;2.10;;
19163;SDS011;9714;51.208;4.242;2022-07-29T01:10:25;11.27;;;1.73;;
19163;SDS011;9714;51.208;4.242;2022-07-29T01:12:57;6.00;;;1.70;;
19163;SDS011;9714;51.208;4.242;2022-07-29T01:15:26;6.10;;;1.47;;
19163;SDS011;9714;51.208;4.242;2022-07-29T01:17:57;10.23;;;1.97;;
19163;SDS011;9714;51.208;4.242;2022-07-29T01:20:35;7.03;;;1.80;;
19163;SDS011;9714;51.208;4.242;2022-07-29T01:23:30;7.00;;;1.67;;
19163;SDS011;9714;51.208;4.242;2022-07-29T01:26:27;7.60;;;1.60;;
19163;SDS011;9714;51.208;4.242;2022-07-29T01:29:04;7.80;;;2.00;;
19163;SDS011;9714;51.208;4.242;2022-07-29T01:31:35;7.60;;;2.07;;
19163;SDS011;9714;51.208;4.242;2022-07-29T01:34:11;7.87;;;2.00;;
19163;SDS011;9714;51.208;4.242;2022-07-29T01:36:43;9.40;;;1.93;;
19163;SDS011;9714;51.208;4.242;2022-07-29T01:39:16;6.93;;;1.60;;
19163;SDS011;9714;51.208;4.242;2022-07-29T01:41:49;7.47;;;1.83;;
19163;SDS011;9714;51.208;4.242;2022-07-29T01:44:27;4.07;;;1.60;;
19163;SDS011;9714;51.208;4.242;2022-07-29T01:47:05;6.47;;;1.70;;
19163;SDS011;9714;51.208;4.242;2022-07-29T01:49:39;7.77;;;1.70;;
19163;SDS011;9714;51.208;4.242;2022-07-29T01:52:13;7.40;;;1.73;;
19163;SDS011;9714;51.208;4.242;2022-07-29T01:54:48;5.07;;;1.40;;
19163;SDS011;9714;51.208;4.242;2022-07-29T01:57:18;8.20;;;1.90;;
19163;SDS011;9714;51.208;4.242;2022-07-29T01:59:52;8.27;;;2.23;;
19163;SDS011;9714;51.208;4.242;2022-07-29T02:02:22;8.83;;;2.20;;
19163;SDS011;9714;51.208;4.242;2022-07-29T02:04:50;7.03;;;1.90;;
19163;SDS011;9714;51.208;4.242;2022-07-29T02:07:20;4.67;;;1.73;;
19163;SDS011;9714;51.208;4.242;2022-07-29T02:09:49;5.77;;;1.90;;
19163;SDS011;9714;51.208;4.242;2022-07-29T02:12:18;8.57;;;1.90;;
19163;SDS011;9714;51.208;4.242;2022-07-29T02:14:47;9.10;;;1.93;;
19163;SDS011;9714;51.208;4.242;2022-07-29T02:17:22;7.07;;;1.70;;
19163;SDS011;9714;51.208;4.242;2022-07-29T02:19:53;5.30;;;1.87;;
19163;SDS011;9714;51.208;4.242;2022-07-29T02:22:24;6.17;;;1.90;;
19163;SDS011;9714;51.208;4.242;2022-07-29T02:24:53;9.60;;;2.43;;
19163;SDS011;9714;51.208;4.242;2022-07-29T02:27:23;6.33;;;2.03;;
19163;SDS011;9714;51.208;4.242;2022-07-29T02:29:53;10.37;;;2.40;;
19163;SDS011;9714;51.208;4.242;2022-07-29T02:32:23;6.97;;;2.43;;
19163;SDS011;9714;51.208;4.242;2022-07-29T02:34:52;7.50;;;2.00;;
19163;SDS011;9714;51.208;4.242;2022-07-29T02:37:20;9.60;;;2.30;;
19163;SDS011;9714;51.208;4.242;2022-07-29T02:39:49;11.03;;;2.77;;
19163;SDS011;9714;51.208;4.242;2022-07-29T02:42:20;11.73;;;2.40;;
19163;SDS011;9714;51.208;4.242;2022-07-29T02:44:49;8.67;;;2.37;;
19163;SDS011;9714;51.208;4.242;2022-07-29T02:47:18;9.80;;;2.40;;
19163;SDS011;9714;51.208;4.242;2022-07-29T02:49:53;5.63;;;2.00;;
19163;SDS011;9714;51.208;4.242;2022-07-29T02:52:26;7.53;;;2.10;;
19163;SDS011;9714;51.208;4.242;2022-07-29T02:54:58;10.63;;;2.40;;
19163;SDS011;9714;51.208;4.242;2022-07-29T02:57:30;10.00;;;2.23;;
19163;SDS011;9714;51.208;4.242;2022-07-29T03:00:02;7.70;;;2.20;;
19163;SDS011;9714;51.208;4.242;2022-07-29T03:02:33;9.60;;;2.20;;
19163;SDS011;9714;51.208;4.242;2022-07-29T03:05:04;8.03;;;2.20;;
19163;SDS011;9714;51.208;4.242;2022-07-29T03:07:35;4.63;;;1.77;;
19163;SDS011;9714;51.208;4.242;2022-07-29T03:10:04;6.83;;;2.03;;
19163;SDS011;9714;51.208;4.242;2022-07-29T03:12:32;7.57;;;1.90;;
19163;SDS011;9714;51.208;4.242;2022-07-29T03:14:59;7.87;;;2.20;;
19163;SDS011;9714;51.208;4.242;2022-07-29T03:17:28;7.33;;;1.73;;
19163;SDS011;9714;51.208;4.242;2022-07-29T03:19:57;9.20;;;2.17;;
19163;SDS011;9714;51.208;4.242;2022-07-29T03:22:26;8.87;;;2.23;;
19163;SDS011;9714;51.208;4.242;2022-07-29T03:24:54;9.83;;;2.17;;
19163;SDS011;9714;51.208;4.242;2022-07-29T03:27:22;9.30;;;2.30;;
19163;SDS011;9714;51.208;4.242;2022-07-29T03:29:49;9.10;;;2.00;;
19163;SDS011;9714;51.208;4.242;2022-07-29T03:32:16;6.63;;;1.70;;
19163;SDS011;9714;51.208;4.242;2022-07-29T03:34:43;11.30;;;2.27;;
19163;SDS011;9714;51.208;4.242;2022-07-29T03:37:10;7.63;;;1.77;;
19163;SDS011;9714;51.208;4.242;2022-07-29T03:39:40;11.80;;;2.73;;
19163;SDS011;9714;51.208;4.242;2022-07-29T03:42:10;9.13;;;1.90;;
19163;SDS011;9714;51.208;4.242;2022-07-29T03:44:40;7.50;;;2.43;;
19163;SDS011;9714;51.208;4.242;2022-07-29T03:47:10;10.37;;;2.70;;
19163;SDS011;9714;51.208;4.242;2022-07-29T03:49:39;10.67;;;2.43;;
19163;SDS011;9714;51.208;4.242;2022-07-29T03:52:07;7.73;;;2.43;;
19163;SDS011;9714;51.208;4.242;2022-07-29T03:54:34;7.83;;;2.10;;
19163;SDS011;9714;51.208;4.242;2022-07-29T03:57:02;9.40;;;2.20;;
19163;SDS011;9714;51.208;4.242;2022-07-29T03:59:32;7.47;;;2.43;;
19163;SDS011;9714;51.208;4.242;2022-07-29T04:02:00;7.07;;;2.60;;
19163;SDS011;9714;51.208;4.242;2022-07-29T04:04:28;9.83;;;2.60;;
19163;SDS011;9714;51.208;4.242;2022-07-29T04:06:58;5.87;;;1.87;;
19163;SDS011;9714;51.208;4.242;2022-07-29T04:09:25;10.20;;;2.10;;
19163;SDS011;9714;51.208;4.242;2022-07-29T04:11:52;7.03;;;2.60;;
19163;SDS011;9714;51.208;4.242;2022-07-29T04:14:20;9.23;;;2.83;;
19163;SDS011;9714;51.208;4.242;2022-07-29T04:16:47;10.13;;;2.47;;
19163;SDS011;9714;51.208;4.242;2022-07-29T04:19:14;8.20;;;2.40;;
19163;SDS011;9714;51.208;4.242;2022-07-29T04:21:41;8.97;;;2.83;;
19163;SDS011;9714;51.208;4.242;2022-07-29T04:24:10;16.03;;;3.00;;
19163;SDS011;9714;51.208;4.242;2022-07-29T04:26:37;7.07;;;2.50;;
19163;SDS011;9714;51.208;4.242;2022-07-29T04:29:04;7.53;;;2.63;;
19163;SDS011;9714;51.208;4.242;2022-07-29T04:31:32;11.90;;;2.70;;
19163;SDS011;9714;51.208;4.242;2022-07-29T04:33:59;10.37;;;2.80;;
19163;SDS011;9714;51.208;4.242;2022-07-29T04:36:26;7.13;;;2.37;;
19163;SDS011;9714;51.208;4.242;2022-07-29T04:38:53;9.97;;;2.73;;
19163;SDS011;9714;51.208;4.242;2022-07-29T04:41:20;11.57;;;2.83;;
19163;SDS011;9714;51.208;4.242;2022-07-29T04:43:47;10.73;;;3.00;;
19163;SDS011;9714;51.208;4.242;2022-07-29T04:46:13;8.83;;;3.30;;
19163;SDS011;9714;51.208;4.242;2022-07-29T04:48:42;8.20;;;3.07;;
19163;SDS011;9714;51.208;4.242;2022-07-29T04:51:11;7.67;;;3.00;;
19163;SDS011;9714;51.208;4.242;2022-07-29T04:53:38;11.07;;;3.77;;
19163;SDS011;9714;51.208;4.242;2022-07-29T04:56:04;9.53;;;3.60;;
19163;SDS011;9714;51.208;4.242;2022-07-29T04:58:33;13.03;;;4.07;;
19163;SDS011;9714;51.208;4.242;2022-07-29T05:01:00;9.87;;;3.93;;
19163;SDS011;9714;51.208;4.242;2022-07-29T05:03:28;13.20;;;3.90;;
19163;SDS011;9714;51.208;4.242;2022-07-29T05:05:56;10.87;;;4.03;;
19163;SDS011;9714;51.208;4.242;2022-07-29T05:08:23;9.53;;;4.00;;
19163;SDS011;9714;51.208;4.242;2022-07-29T05:10:50;15.67;;;3.83;;
19163;SDS011;9714;51.208;4.242;2022-07-29T05:13:17;14.67;;;4.53;;
19163;SDS011;9714;51.208;4.242;2022-07-29T05:15:44;13.27;;;4.10;;
19163;SDS011;9714;51.208;4.242;2022-07-29T05:18:11;14.93;;;3.90;;
19163;SDS011;9714;51.208;4.242;2022-07-29T05:20:37;11.60;;;4.00;;
19163;SDS011;9714;51.208;4.242;2022-07-29T05:23:06;8.30;;;3.70;;
19163;SDS011;9714;51.208;4.242;2022-07-29T05:25:33;10.40;;;3.53;;
19163;SDS011;9714;51.208;4.242;2022-07-29T05:28:00;8.50;;;3.80;;
19163;SDS011;9714;51.208;4.242;2022-07-29T05:30:27;11.07;;;3.63;;
19163;SDS011;9714;51.208;4.242;2022-07-29T05:32:55;11.63;;;3.80;;
19163;SDS011;9714;51.208;4.242;2022-07-29T05:35:22;11.80;;;3.83;;
19163;SDS011;9714;51.208;4.242;2022-07-29T05:37:49;10.80;;;3.50;;
19163;SDS011;9714;51.208;4.242;2022-07-29T05:40:17;12.67;;;4.07;;
19163;SDS011;9714;51.208;4.242;2022-07-29T05:42:45;10.57;;;3.77;;
19163;SDS011;9714;51.208;4.242;2022-07-29T05:45:12;10.70;;;3.67;;
19163;SDS011;9714;51.208;4.242;2022-07-29T05:47:39;11.63;;;4.27;;
19163;SDS011;9714;51.208;4.242;2022-07-29T05:50:06;11.27;;;4.03;;
19163;SDS011;9714;51.208;4.242;2022-07-29T05:52:34;10.87;;;4.37;;
19163;SDS011;9714;51.208;4.242;2022-07-29T05:55:01;13.07;;;4.17;;
19163;SDS011;9714;51.208;4.242;2022-07-29T05:57:31;14.20;;;3.77;;
19163;SDS011;9714;51.208;4.242;2022-07-29T05:59:59;10.13;;;3.60;;
19163;SDS011;9714;51.208;4.242;2022-07-29T06:02:26;14.30;;;4.30;;
19163;SDS011;9714;51.208;4.242;2022-07-29T06:04:53;9.83;;;3.30;;
19163;SDS011;9714;51.208;4.242;2022-07-29T06:07:20;13.03;;;3.87;;
19163;SDS011;9714;51.208;4.242;2022-07-29T06:09:47;10.37;;;3.43;;
19163;SDS011;9714;51.208;4.242;2022-07-29T06:12:14;15.37;;;3.70;;
19163;SDS011;9714;51.208;4.242;2022-07-29T06:14:42;10.07;;;3.20;;
19163;SDS011;9714;51.208;4.242;2022-07-29T06:17:09;8.43;;;2.83;;
19163;SDS011;9714;51.208;4.242;2022-07-29T06:19:36;9.53;;;3.27;;
19163;SDS011;9714;51.208;4.242;2022-07-29T06:22:04;13.93;;;3.77;;
19163;SDS011;9714;51.208;4.242;2022-07-29T06:24:31;10.23;;;3.87;;
19163;SDS011;9714;51.208;4.242;2022-07-29T06:26:58;13.43;;;3.50;;
19163;SDS011;9714;51.208;4.242;2022-07-29T06:29:24;12.93;;;3.83;;
19163;SDS011;9714;51.208;4.242;2022-07-29T06:31:53;12.37;;;3.70;;
19163;SDS011;9714;51.208;4.242;2022-07-29T06:34:20;10.50;;;3.47;;
19163;SDS011;9714;51.208;4.242;2022-07-29T06:36:46;12.83;;;4.30;;
19163;SDS011;9714;51.208;4.242;2022-07-29T06:39:14;11.10;;;3.80;;
19163;SDS011;9714;51.208;4.242;2022-07-29T06:41:41;12.73;;;3.93;;
19163;SDS011;9714;51.208;4.242;2022-07-29T06:44:08;8.53;;;3.97;;
19163;SDS011;9714;51.208;4.242;2022-07-29T06:46:35;14.50;;;4.47;;
19163;SDS011;9714;51.208;4.242;2022-07-29T06:49:04;11.17;;;4.63;;
19163;SDS011;9714;51.208;4.242;2022-07-29T06:51:31;11.37;;;4.17;;
19163;SDS011;9714;51.208;4.242;2022-07-29T06:53:58;13.87;;;3.90;;
19163;SDS011;9714;51.208;4.242;2022-07-29T06:56:25;9.73;;;3.93;;
19163;SDS011;9714;51.208;4.242;2022-07-29T06:58:52;14.87;;;5.20;;
19163;SDS011;9714;51.208;4.242;2022-07-29T07:01:19;10.63;;;4.30;;
19163;SDS011;9714;51.208;4.242;2022-07-29T07:03:46;14.57;;;5.30;;
19163;SDS011;9714;51.208;4.242;2022-07-29T07:06:14;10.93;;;4.90;;
19163;SDS011;9714;51.208;4.242;2022-07-29T07:08:41;11.47;;;5.13;;
19163;SDS011;9714;51.208;4.242;2022-07-29T07:11:08;17.03;;;5.57;;
19163;SDS011;9714;51.208;4.242;2022-07-29T07:13:35;13.83;;;6.37;;
19163;SDS011;9714;51.208;4.242;2022-07-29T07:16:02;19.87;;;6.23;;
19163;SDS011;9714;51.208;4.242;2022-07-29T07:18:30;14.63;;;5.43;;
19163;SDS011;9714;51.208;4.242;2022-07-29T07:20:57;13.52;;;5.68;;
19163;SDS011;9714;51.208;4.242;2022-07-29T07:23:26;14.73;;;5.30;;
19163;SDS011;9714;51.208;4.242;2022-07-29T07:25:53;11.10;;;5.03;;
19163;SDS011;9714;51.208;4.242;2022-07-29T07:28:19;13.63;;;5.50;;
19163;SDS011;9714;51.208;4.242;2022-07-29T07:30:46;14.40;;;5.63;;
19163;SDS011;9714;51.208;4.242;2022-07-29T07:33:13;11.32;;;5.22;;
19163;SDS011;9714;51.208;4.242;2022-07-29T07:35:40;11.60;;;4.45;;
19163;SDS011;9714;51.208;4.242;2022-07-29T07:38:07;12.15;;;4.65;;
19163;SDS011;9714;51.208;4.242;2022-07-29T07:40:36;20.08;;;4.93;;
19163;SDS011;9714;51.208;4.242;2022-07-29T07:43:03;12.50;;;4.55;;
19163;SDS011;9714;51.208;4.242;2022-07-29T07:45:30;10.80;;;4.55;;
19163;SDS011;9714;51.208;4.242;2022-07-29T07:47:58;10.48;;;4.25;;
19163;SDS011;9714;51.208;4.242;2022-07-29T07:50:25;11.85;;;4.65;;
19163;SDS011;9714;51.208;4.242;2022-07-29T07:52:55;11.50;;;4.40;;
19163;SDS011;9714;51.208;4.242;2022-07-29T07:55:23;11.98;;;4.22;;
19163;SDS011;9714;51.208;4.242;2022-07-29T07:57:52;14.07;;;4.68;;
19163;SDS011;9714;51.208;4.242;2022-07-29T08:00:19;10.77;;;4.65;;
19163;SDS011;9714;51.208;4.242;2022-07-29T08:02:46;13.20;;;5.78;;
19163;SDS011;9714;51.208;4.242;2022-07-29T08:05:14;14.13;;;5.78;;
19163;SDS011;9714;51.208;4.242;2022-07-29T08:07:43;12.20;;;5.85;;
19163;SDS011;9714;51.208;4.242;2022-07-29T08:10:11;15.95;;;5.90;;
19163;SDS011;9714;51.208;4.242;2022-07-29T08:12:39;19.52;;;6.68;;
19163;SDS011;9714;51.208;4.242;2022-07-29T08:15:08;12.70;;;6.63;;
19163;SDS011;9714;51.208;4.242;2022-07-29T08:17:35;15.70;;;5.88;;
19163;SDS011;9714;51.208;4.242;2022-07-29T08:20:02;12.00;;;5.40;;
19163;SDS011;9714;51.208;4.242;2022-07-29T08:22:29;15.10;;;5.40;;
19163;SDS011;9714;51.208;4.242;2022-07-29T08:24:56;16.40;;;5.53;;
19163;SDS011;9714;51.208;4.242;2022-07-29T08:27:23;15.65;;;4.80;;
19163;SDS011;9714;51.208;4.242;2022-07-29T08:29:51;12.05;;;4.65;;
19163;SDS011;9714;51.208;4.242;2022-07-29T08:32:22;16.30;;;5.10;;
19163;SDS011;9714;51.208;4.242;2022-07-29T08:34:49;12.02;;;4.82;;
19163;SDS011;9714;51.208;4.242;2022-07-29T08:37:16;11.43;;;4.63;;
19163;SDS011;9714;51.208;4.242;2022-07-29T08:39:43;11.45;;;4.32;;
19163;SDS011;9714;51.208;4.242;2022-07-29T08:42:10;14.30;;;4.05;;
19163;SDS011;9714;51.208;4.242;2022-07-29T08:44:37;12.02;;;4.32;;
19163;SDS011;9714;51.208;4.242;2022-07-29T08:47:05;10.90;;;3.90;;
19163;SDS011;9714;51.208;4.242;2022-07-29T08:49:34;8.70;;;3.33;;
19163;SDS011;9714;51.208;4.242;2022-07-29T08:52:01;15.15;;;4.00;;
19163;SDS011;9714;51.208;4.242;2022-07-29T08:54:29;13.23;;;3.10;;
19163;SDS011;9714;51.208;4.242;2022-07-29T08:56:56;7.10;;;2.78;;
19163;SDS011;9714;51.208;4.242;2022-07-29T08:59:24;13.25;;;3.75;;
19163;SDS011;9714;51.208;4.242;2022-07-29T09:01:53;10.75;;;3.30;;
19163;SDS011;9714;51.208;4.242;2022-07-29T09:04:21;13.38;;;3.35;;
19163;SDS011;9714;51.208;4.242;2022-07-29T09:06:54;10.82;;;3.45;;
19163;SDS011;9714;51.208;4.242;2022-07-29T09:09:26;12.50;;;3.10;;
19163;SDS011;9714;51.208;4.242;2022-07-29T09:11:53;9.93;;;3.65;;
19163;SDS011;9714;51.208;4.242;2022-07-29T09:14:20;11.02;;;3.92;;
19163;SDS011;9714;51.208;4.242;2022-07-29T09:16:49;10.90;;;3.80;;
19163;SDS011;9714;51.208;4.242;2022-07-29T09:19:21;9.05;;;3.05;;
19163;SDS011;9714;51.208;4.242;2022-07-29T09:21:49;10.65;;;3.08;;
19163;SDS011;9714;51.208;4.242;2022-07-29T09:24:42;13.63;;;3.67;;
19163;SDS011;9714;51.208;4.242;2022-07-29T09:27:20;9.85;;;3.30;;
19163;SDS011;9714;51.208;4.242;2022-07-29T09:29:55;10.38;;;3.47;;
19163;SDS011;9714;51.208;4.242;2022-07-29T09:32:23;9.27;;;3.10;;
19163;SDS011;9714;51.208;4.242;2022-07-29T09:34:51;10.93;;;3.38;;
19163;SDS011;9714;51.208;4.242;2022-07-29T09:37:43;9.40;;;2.97;;
19163;SDS011;9714;51.208;4.242;2022-07-29T09:40:15;17.42;;;4.03;;
19163;SDS011;9714;51.208;4.242;2022-07-29T09:42:44;9.50;;;2.92;;
19163;SDS011;9714;51.208;4.242;2022-07-29T09:45:12;8.50;;;2.88;;
19163;SDS011;9714;51.208;4.242;2022-07-29T09:47:51;11.98;;;3.05;;
19163;SDS011;9714;51.208;4.242;2022-07-29T09:50:19;12.00;;;3.80;;
19163;SDS011;9714;51.208;4.242;2022-07-29T09:52:49;10.02;;;2.90;;
19163;SDS011;9714;51.208;4.242;2022-07-29T09:55:20;10.05;;;3.05;;
19163;SDS011;9714;51.208;4.242;2022-07-29T09:57:48;12.65;;;3.20;;
19163;SDS011;9714;51.208;4.242;2022-07-29T10:00:16;10.38;;;3.35;;
19163;SDS011;9714;51.208;4.242;2022-07-29T10:02:45;10.25;;;3.58;;
19163;SDS011;9714;51.208;4.242;2022-07-29T10:05:17;13.55;;;3.53;;
19163;SDS011;9714;51.208;4.242;2022-07-29T10:07:46;32.92;;;6.80;;
19163;SDS011;9714;51.208;4.242;2022-07-29T10:10:23;13.88;;;3.55;;
19163;SDS011;9714;51.208;4.242;2022-07-29T10:12:53;9.02;;;2.90;;
19163;SDS011;9714;51.208;4.242;2022-07-29T10:15:29;12.82;;;3.30;;
19163;SDS011;9714;51.208;4.242;2022-07-29T10:17:59;12.52;;;3.15;;
19163;SDS011;9714;51.208;4.242;2022-07-29T10:20:26;14.90;;;3.60;;
19163;SDS011;9714;51.208;4.242;2022-07-29T10:22:54;12.48;;;3.25;;
19163;SDS011;9714;51.208;4.242;2022-07-29T10:25:24;11.43;;;3.28;;
19163;SDS011;9714;51.208;4.242;2022-07-29T10:27:52;11.55;;;3.50;;
19163;SDS011;9714;51.208;4.242;2022-07-29T10:30:26;11.23;;;3.65;;
19163;SDS011;9714;51.208;4.242;2022-07-29T10:33:08;14.68;;;3.58;;
19163;SDS011;9714;51.208;4.242;2022-07-29T10:35:47;10.32;;;2.63;;
19163;SDS011;9714;51.208;4.242;2022-07-29T10:38:32;11.43;;;3.50;;
19163;SDS011;9714;51.208;4.242;2022-07-29T10:41:27;13.23;;;3.40;;
19163;SDS011;9714;51.208;4.242;2022-07-29T10:44:20;11.35;;;3.28;;
19163;SDS011;9714;51.208;4.242;2022-07-29T10:46:50;15.07;;;3.10;;
19163;SDS011;9714;51.208;4.242;2022-07-29T10:49:21;10.23;;;3.72;;
19163;SDS011;9714;51.208;4.242;2022-07-29T10:52:00;16.42;;;3.97;;
19163;SDS011;9714;51.208;4.242;2022-07-29T10:54:40;10.63;;;3.05;;
19163;SDS011;9714;51.208;4.242;2022-07-29T10:57:15;12.40;;;2.97;;
19163;SDS011;9714;51.208;4.242;2022-07-29T11:03:00;11.68;;;3.75;;
19163;SDS011;9714;51.208;4.242;2022-07-29T11:05:27;15.48;;;3.58;;
19163;SDS011;9714;51.208;4.242;2022-07-29T11:10:46;11.48;;;2.50;;
19163;SDS011;9714;51.208;4.242;2022-07-29T11:16:13;14.02;;;3.20;;
19163;SDS011;9714;51.208;4.242;2022-07-29T11:21:37;8.90;;;2.90;;
19163;SDS011;9714;51.208;4.242;2022-07-29T11:24:13;7.30;;;2.22;;
19163;SDS011;9714;51.208;4.242;2022-07-29T11:26:42;14.80;;;2.63;;
19163;SDS011;9714;51.208;4.242;2022-07-29T11:29:18;9.50;;;2.92;;
19163;SDS011;9714;51.208;4.242;2022-07-29T11:31:48;11.27;;;2.78;;
19163;SDS011;9714;51.208;4.242;2022-07-29T11:34:23;6.93;;;1.88;;
19163;SDS011;9714;51.208;4.242;2022-07-29T11:39:41;8.93;;;2.30;;
19163;SDS011;9714;51.208;4.242;2022-07-29T11:45:06;6.85;;;2.17;;
19163;SDS011;9714;51.208;4.242;2022-07-29T11:47:35;9.77;;;2.85;;
19163;SDS011;9714;51.208;4.242;2022-07-29T11:50:05;9.40;;;2.22;;
19163;SDS011;9714;51.208;4.242;2022-07-29T11:52:34;9.20;;;2.60;;
19163;SDS011;9714;51.208;4.242;2022-07-29T11:55:08;8.98;;;2.30;;
19163;SDS011;9714;51.208;4.242;2022-07-29T11:57:36;9.70;;;2.63;;
19163;SDS011;9714;51.208;4.242;2022-07-29T12:00:06;8.68;;;2.40;;
19163;SDS011;9714;51.208;4.242;2022-07-29T12:02:39;9.77;;;2.40;;
19163;SDS011;9714;51.208;4.242;2022-07-29T12:05:07;8.20;;;2.67;;
19163;SDS011;9714;51.208;4.242;2022-07-29T12:07:36;12.32;;;2.72;;
19163;SDS011;9714;51.208;4.242;2022-07-29T12:10:05;13.35;;;2.50;;
19163;SDS011;9714;51.208;4.242;2022-07-29T12:12:35;16.02;;;2.55;;
19163;SDS011;9714;51.208;4.242;2022-07-29T12:15:15;11.52;;;3.10;;
19163;SDS011;9714;51.208;4.242;2022-07-29T12:17:45;8.75;;;2.38;;
19163;SDS011;9714;51.208;4.242;2022-07-29T12:20:21;8.32;;;2.22;;
19163;SDS011;9714;51.208;4.242;2022-07-29T12:22:49;9.68;;;2.13;;
19163;SDS011;9714;51.208;4.242;2022-07-29T12:25:18;12.00;;;2.33;;
19163;SDS011;9714;51.208;4.242;2022-07-29T12:27:47;6.57;;;1.98;;
19163;SDS011;9714;51.208;4.242;2022-07-29T12:30:33;13.73;;;2.65;;
19163;SDS011;9714;51.208;4.242;2022-07-29T12:33:13;8.05;;;2.50;;
19163;SDS011;9714;51.208;4.242;2022-07-29T12:35:45;10.82;;;2.20;;
19163;SDS011;9714;51.208;4.242;2022-07-29T12:38:14;10.00;;;2.30;;
19163;SDS011;9714;51.208;4.242;2022-07-29T12:40:42;8.00;;;2.10;;
19163;SDS011;9714;51.208;4.242;2022-07-29T12:43:11;7.88;;;1.80;;
19163;SDS011;9714;51.208;4.242;2022-07-29T12:45:42;11.07;;;2.50;;
19163;SDS011;9714;51.208;4.242;2022-07-29T12:48:10;9.48;;;2.38;;
19163;SDS011;9714;51.208;4.242;2022-07-29T12:50:51;10.95;;;2.88;;
19163;SDS011;9714;51.208;4.242;2022-07-29T12:53:20;11.40;;;3.00;;
19163;SDS011;9714;51.208;4.242;2022-07-29T12:55:47;15.45;;;2.65;;
19163;SDS011;9714;51.208;4.242;2022-07-29T12:58:29;10.30;;;2.80;;
19163;SDS011;9714;51.208;4.242;2022-07-29T13:01:03;10.10;;;2.70;;
19163;SDS011;9714;51.208;4.242;2022-07-29T13:03:44;10.77;;;2.08;;
19163;SDS011;9714;51.208;4.242;2022-07-29T13:06:29;12.55;;;2.38;;
19163;SDS011;9714;51.208;4.242;2022-07-29T13:08:58;10.32;;;2.10;;
19163;SDS011;9714;51.208;4.242;2022-07-29T13:11:27;7.38;;;2.10;;
19163;SDS011;9714;51.208;4.242;2022-07-29T13:13:58;8.15;;;2.28;;
19163;SDS011;9714;51.208;4.242;2022-07-29T13:16:26;6.82;;;1.92;;
19163;SDS011;9714;51.208;4.242;2022-07-29T13:19:03;7.43;;;2.53;;
19163;SDS011;9714;51.208;4.242;2022-07-29T13:21:34;10.75;;;2.60;;
19163;SDS011;9714;51.208;4.242;2022-07-29T13:24:02;11.13;;;3.03;;
19163;SDS011;9714;51.208;4.242;2022-07-29T13:26:31;7.35;;;2.15;;
19163;SDS011;9714;51.208;4.242;2022-07-29T13:28:59;14.60;;;3.17;;
19163;SDS011;9714;51.208;4.242;2022-07-29T13:31:28;10.32;;;2.50;;
19163;SDS011;9714;51.208;4.242;2022-07-29T13:33:55;9.60;;;2.70;;
19163;SDS011;9714;51.208;4.242;2022-07-29T13:36:22;13.23;;;2.65;;
19163;SDS011;9714;51.208;4.242;2022-07-29T13:38:49;8.35;;;2.65;;
19163;SDS011;9714;51.208;4.242;2022-07-29T13:41:16;10.68;;;2.95;;
19163;SDS011;9714;51.208;4.242;2022-07-29T13:43:43;9.60;;;2.92;;
19163;SDS011;9714;51.208;4.242;2022-07-29T13:46:10;10.82;;;2.35;;
19163;SDS011;9714;51.208;4.242;2022-07-29T13:48:39;9.77;;;3.03;;
19163;SDS011;9714;51.208;4.242;2022-07-29T13:51:06;10.38;;;2.85;;
19163;SDS011;9714;51.208;4.242;2022-07-29T13:53:33;8.63;;;2.80;;
19163;SDS011;9714;51.208;4.242;2022-07-29T13:56:00;9.73;;;2.60;;
19163;SDS011;9714;51.208;4.242;2022-07-29T13:58:28;8.55;;;2.33;;
19163;SDS011;9714;51.208;4.242;2022-07-29T14:00:55;10.85;;;2.55;;
19163;SDS011;9714;51.208;4.242;2022-07-29T14:03:23;8.80;;;2.30;;
19163;SDS011;9714;51.208;4.242;2022-07-29T14:05:51;8.52;;;2.28;;
19163;SDS011;9714;51.208;4.242;2022-07-29T14:08:18;9.70;;;2.35;;
19163;SDS011;9714;51.208;4.242;2022-07-29T14:10:45;11.18;;;2.72;;
19163;SDS011;9714;51.208;4.242;2022-07-29T14:13:12;9.23;;;2.67;;
19163;SDS011;9714;51.208;4.242;2022-07-29T14:15:39;8.55;;;2.30;;
19163;SDS011;9714;51.208;4.242;2022-07-29T14:18:06;8.00;;;2.08;;
19163;SDS011;9714;51.208;4.242;2022-07-29T14:20:33;6.15;;;1.70;;
19163;SDS011;9714;51.208;4.242;2022-07-29T14:23:01;9.68;;;2.38;;
19163;SDS011;9714;51.208;4.242;2022-07-29T14:25:28;11.63;;;2.85;;
19163;SDS011;9714;51.208;4.242;2022-07-29T14:27:55;13.65;;;2.75;;
19163;SDS011;9714;51.208;4.242;2022-07-29T14:30:22;11.43;;;3.00;;
19163;SDS011;9714;51.208;4.242;2022-07-29T14:32:49;8.48;;;2.60;;
19163;SDS011;9714;51.208;4.242;2022-07-29T14:35:16;8.20;;;2.38;;
19163;SDS011;9714;51.208;4.242;2022-07-29T14:37:43;9.10;;;2.40;;
19163;SDS011;9714;51.208;4.242;2022-07-29T14:40:11;13.75;;;3.08;;
19163;SDS011;9714;51.208;4.242;2022-07-29T14:42:38;12.77;;;2.65;;
19163;SDS011;9714;51.208;4.242;2022-07-29T14:45:06;7.82;;;2.67;;
19163;SDS011;9714;51.208;4.242;2022-07-29T14:47:35;9.10;;;2.97;;
19163;SDS011;9714;51.208;4.242;2022-07-29T14:50:02;10.20;;;2.50;;
19163;SDS011;9714;51.208;4.242;2022-07-29T14:52:31;7.80;;;2.25;;
19163;SDS011;9714;51.208;4.242;2022-07-29T14:54:59;9.32;;;2.65;;
19163;SDS011;9714;51.208;4.242;2022-07-29T14:57:27;9.05;;;2.58;;
19163;SDS011;9714;51.208;4.242;2022-07-29T14:59:55;9.57;;;2.35;;
19163;SDS011;9714;51.208;4.242;2022-07-29T15:02:22;8.57;;;2.65;;
19163;SDS011;9714;51.208;4.242;2022-07-29T15:04:49;10.75;;;2.50;;
19163;SDS011;9714;51.208;4.242;2022-07-29T15:07:16;9.25;;;2.50;;
19163;SDS011;9714;51.208;4.242;2022-07-29T15:09:43;12.35;;;2.80;;
19163;SDS011;9714;51.208;4.242;2022-07-29T15:12:11;10.23;;;2.40;;
19163;SDS011;9714;51.208;4.242;2022-07-29T15:14:39;15.27;;;2.72;;
19163;SDS011;9714;51.208;4.242;2022-07-29T15:17:06;7.43;;;2.05;;
19163;SDS011;9714;51.208;4.242;2022-07-29T15:19:33;8.27;;;2.20;;
19163;SDS011;9714;51.208;4.242;2022-07-29T15:22:00;8.85;;;2.15;;
19163;SDS011;9714;51.208;4.242;2022-07-29T15:24:27;8.82;;;2.92;;